sensor_id;sensor_type;location;lat;lon;timestamp;temperature;humidity
33815;DHT22;20121;51.910;8.406;2023-07-24T00:00:24;18.50;99.90
33815;DHT22;20121;51.910;8.406;2023-07-24T00:02:50;18.40;99.90
33815;DHT22;20121;51.910;8.406;2023-07-24T00:05:15;18.50;99.90
33815;DHT22;20121;51.910;8.406;2023-07-24T00:07:41;18.40;99.90
33815;DHT22;20121;51.910;8.406;2023-07-24T00:10:07;18.40;99.90
33815;DHT22;20121;51.910;8.406;2023-07-24T00:12:33;18.40;99.90
33815;DHT22;20121;51.910;8.406;2023-07-24T00:14:58;18.40;99.90
33815;DHT22;20121;51.910;8.406;2023-07-24T00:17:24;18.40;99.90
33815;DHT22;20121;51.910;8.406;2023-07-24T00:19:50;18.70;99.90
33815;DHT22;20121;51.910;8.406;2023-07-24T00:22:15;18.40;99.90
33815;DHT22;20121;51.910;8.406;2023-07-24T00:24:41;18.40;99.90
33815;DHT22;20121;51.910;8.406;2023-07-24T00:27:07;18.40;99.90
33815;DHT22;20121;51.910;8.406;2023-07-24T00:29:32;18.40;99.90
33815;DHT22;20121;51.910;8.406;2023-07-24T00:31:58;18.40;99.90
33815;DHT22;20121;51.910;8.406;2023-07-24T00:34:23;18.30;99.90
33815;DHT22;20121;51.910;8.406;2023-07-24T00:36:49;18.30;99.90
33815;DHT22;20121;51.910;8.406;2023-07-24T00:39:15;18.30;99.90
33815;DHT22;20121;51.910;8.406;2023-07-24T00:41:41;18.30;99.90
33815;DHT22;20121;51.910;8.406;2023-07-24T00:44:07;18.30;99.90
33815;DHT22;20121;51.910;8.406;2023-07-24T00:46:34;18.30;99.90
33815;DHT22;20121;51.910;8.406;2023-07-24T00:49:01;18.30;99.90
33815;DHT22;20121;51.910;8.406;2023-07-24T00:51:27;18.30;99.90
33815;DHT22;20121;51.910;8.406;2023-07-24T00:53:55;18.30;99.90
33815;DHT22;20121;51.910;8.406;2023-07-24T00:56:22;18.20;99.90
33815;DHT22;20121;51.910;8.406;2023-07-24T00:58:48;18.20;99.90
33815;DHT22;20121;51.910;8.406;2023-07-24T01:01:16;18.20;99.90
33815;DHT22;20121;51.910;8.406;2023-07-24T01:03:42;18.20;99.90
33815;DHT22;20121;51.910;8.406;2023-07-24T01:06:09;18.10;99.90
33815;DHT22;20121;51.910;8.406;2023-07-24T01:08:35;18.20;99.90
33815;DHT22;20121;51.910;8.406;2023-07-24T01:11:11;18.20;99.90
33815;DHT22;20121;51.910;8.406;2023-07-24T01:13:44;18.10;99.90
33815;DHT22;20121;51.910;8.406;2023-07-24T01:16:14;18.10;99.90
33815;DHT22;20121;51.910;8.406;2023-07-24T01:18:39;18.10;99.90
33815;DHT22;20121;51.910;8.406;2023-07-24T01:21:09;18.10;99.90
33815;DHT22;20121;51.910;8.406;2023-07-24T01:26:02;18.10;99.90
33815;DHT22;20121;51.910;8.406;2023-07-24T01:28:28;18.10;99.90
33815;DHT22;20121;51.910;8.406;2023-07-24T01:30:55;18.10;99.90
33815;DHT22;20121;51.910;8.406;2023-07-24T01:33:21;18.10;99.90
33815;DHT22;20121;51.910;8.406;2023-07-24T01:36:02;18.10;99.90
33815;DHT22;20121;51.910;8.406;2023-07-24T01:38:31;18.00;99.90
33815;DHT22;20121;51.910;8.406;2023-07-24T01:40:57;18.00;99.90
33815;DHT22;20121;51.910;8.406;2023-07-24T01:43:25;18.00;99.90
33815;DHT22;20121;51.910;8.406;2023-07-24T01:45:52;18.00;99.90
33815;DHT22;20121;51.910;8.406;2023-07-24T01:48:18;18.00;99.90
33815;DHT22;20121;51.910;8.406;2023-07-24T01:50:44;17.90;99.90
33815;DHT22;20121;51.910;8.406;2023-07-24T01:53:09;17.90;99.90
33815;DHT22;20121;51.910;8.406;2023-07-24T01:55:35;17.90;99.90
33815;DHT22;20121;51.910;8.406;2023-07-24T01:58:01;17.90;99.90
33815;DHT22;20121;51.910;8.406;2023-07-24T02:00:26;17.90;99.90
33815;DHT22;20121;51.910;8.406;2023-07-24T02:02:52;17.90;99.90
33815;DHT22;20121;51.910;8.406;2023-07-24T02:05:18;17.90;99.90
33815;DHT22;20121;51.910;8.406;2023-07-24T02:07:43;17.80;99.90
33815;DHT22;20121;51.910;8.406;2023-07-24T02:10:09;17.80;99.90
33815;DHT22;20121;51.910;8.406;2023-07-24T02:12:35;17.80;99.90
33815;DHT22;20121;51.910;8.406;2023-07-24T02:15:01;17.80;99.90
33815;DHT22;20121;51.910;8.406;2023-07-24T02:17:26;17.80;99.90
33815;DHT22;20121;51.910;8.406;2023-07-24T02:19:52;17.50;99.90
33815;DHT22;20121;51.910;8.406;2023-07-24T02:22:17;17.80;99.90
33815;DHT22;20121;51.910;8.406;2023-07-24T02:24:43;17.80;99.90
33815;DHT22;20121;51.910;8.406;2023-07-24T02:27:12;17.80;99.90
33815;DHT22;20121;51.910;8.406;2023-07-24T02:29:38;18.20;99.90
33815;DHT22;20121;51.910;8.406;2023-07-24T02:32:03;17.80;99.90
33815;DHT22;20121;51.910;8.406;2023-07-24T02:34:29;17.90;99.90
33815;DHT22;20121;51.910;8.406;2023-07-24T02:36:55;17.80;99.90
33815;DHT22;20121;51.910;8.406;2023-07-24T02:39:21;17.80;99.90
33815;DHT22;20121;51.910;8.406;2023-07-24T02:41:49;17.80;99.90
33815;DHT22;20121;51.910;8.406;2023-07-24T02:44:15;17.80;99.90
33815;DHT22;20121;51.910;8.406;2023-07-24T02:46:41;17.80;99.90
33815;DHT22;20121;51.910;8.406;2023-07-24T02:49:07;17.70;99.90
33815;DHT22;20121;51.910;8.406;2023-07-24T02:51:33;17.70;99.90
33815;DHT22;20121;51.910;8.406;2023-07-24T02:53:58;17.70;99.90
33815;DHT22;20121;51.910;8.406;2023-07-24T02:56:24;17.70;99.90
33815;DHT22;20121;51.910;8.406;2023-07-24T03:01:15;17.70;99.90
33815;DHT22;20121;51.910;8.406;2023-07-24T03:03:41;17.70;99.90
33815;DHT22;20121;51.910;8.406;2023-07-24T03:06:07;17.70;99.90
33815;DHT22;20121;51.910;8.406;2023-07-24T03:08:33;17.60;99.90
33815;DHT22;20121;51.910;8.406;2023-07-24T03:10:59;17.60;99.90
33815;DHT22;20121;51.910;8.406;2023-07-24T03:13:25;17.40;99.90
33815;DHT22;20121;51.910;8.406;2023-07-24T03:15:55;17.60;99.90
33815;DHT22;20121;51.910;8.406;2023-07-24T03:18:21;17.60;99.90
33815;DHT22;20121;51.910;8.406;2023-07-24T03:20:47;17.60;99.90
33815;DHT22;20121;51.910;8.406;2023-07-24T03:23:13;17.50;99.90
33815;DHT22;20121;51.910;8.406;2023-07-24T03:25:38;17.50;99.90
33815;DHT22;20121;51.910;8.406;2023-07-24T03:28:04;17.50;99.90
33815;DHT22;20121;51.910;8.406;2023-07-24T03:30:30;17.50;99.90
33815;DHT22;20121;51.910;8.406;2023-07-24T03:32:55;17.50;99.90
33815;DHT22;20121;51.910;8.406;2023-07-24T03:35:21;17.50;99.90
33815;DHT22;20121;51.910;8.406;2023-07-24T03:37:46;17.50;99.90
33815;DHT22;20121;51.910;8.406;2023-07-24T03:40:12;17.10;99.90
33815;DHT22;20121;51.910;8.406;2023-07-24T03:42:38;17.50;99.90
33815;DHT22;20121;51.910;8.406;2023-07-24T03:45:04;17.50;99.90
33815;DHT22;20121;51.910;8.406;2023-07-24T03:47:29;17.50;99.90
33815;DHT22;20121;51.910;8.406;2023-07-24T03:49:55;17.50;99.90
33815;DHT22;20121;51.910;8.406;2023-07-24T03:52:21;17.50;99.90
33815;DHT22;20121;51.910;8.406;2023-07-24T03:54:46;17.50;99.90
33815;DHT22;20121;51.910;8.406;2023-07-24T03:57:12;17.50;99.90
33815;DHT22;20121;51.910;8.406;2023-07-24T03:59:38;17.50;99.90
33815;DHT22;20121;51.910;8.406;2023-07-24T04:02:04;17.50;99.90
33815;DHT22;20121;51.910;8.406;2023-07-24T04:04:30;17.50;99.90
33815;DHT22;20121;51.910;8.406;2023-07-24T04:06:56;17.50;99.90
33815;DHT22;20121;51.910;8.406;2023-07-24T04:09:21;17.20;99.90
33815;DHT22;20121;51.910;8.406;2023-07-24T04:11:47;17.50;99.90
33815;DHT22;20121;51.910;8.406;2023-07-24T04:14:13;17.50;99.90
33815;DHT22;20121;51.910;8.406;2023-07-24T04:16:38;17.50;99.90
33815;DHT22;20121;51.910;8.406;2023-07-24T04:19:04;17.50;99.90
33815;DHT22;20121;51.910;8.406;2023-07-24T04:21:29;17.60;99.90
33815;DHT22;20121;51.910;8.406;2023-07-24T04:23:55;17.60;99.90
33815;DHT22;20121;51.910;8.406;2023-07-24T04:26:21;17.60;99.90
33815;DHT22;20121;51.910;8.406;2023-07-24T04:28:46;17.60;99.90
33815;DHT22;20121;51.910;8.406;2023-07-24T04:31:12;17.70;99.90
33815;DHT22;20121;51.910;8.406;2023-07-24T04:33:38;17.70;99.90
33815;DHT22;20121;51.910;8.406;2023-07-24T04:36:04;17.70;99.90
33815;DHT22;20121;51.910;8.406;2023-07-24T04:38:30;17.70;99.90
33815;DHT22;20121;51.910;8.406;2023-07-24T04:40:55;17.70;99.90
33815;DHT22;20121;51.910;8.406;2023-07-24T04:43:21;17.70;99.90
33815;DHT22;20121;51.910;8.406;2023-07-24T04:45:47;17.70;99.90
33815;DHT22;20121;51.910;8.406;2023-07-24T04:48:12;17.70;99.90
33815;DHT22;20121;51.910;8.406;2023-07-24T04:50:38;17.70;99.90
33815;DHT22;20121;51.910;8.406;2023-07-24T04:53:03;17.70;99.90
33815;DHT22;20121;51.910;8.406;2023-07-24T04:55:29;17.70;99.90
33815;DHT22;20121;51.910;8.406;2023-07-24T04:57:55;17.70;99.90
33815;DHT22;20121;51.910;8.406;2023-07-24T05:00:20;17.70;99.90
33815;DHT22;20121;51.910;8.406;2023-07-24T05:02:46;17.70;99.90
33815;DHT22;20121;51.910;8.406;2023-07-24T05:05:11;17.70;99.90
33815;DHT22;20121;51.910;8.406;2023-07-24T05:07:37;17.70;99.90
33815;DHT22;20121;51.910;8.406;2023-07-24T05:10:03;17.80;99.90
33815;DHT22;20121;51.910;8.406;2023-07-24T05:12:28;17.80;99.90
33815;DHT22;20121;51.910;8.406;2023-07-24T05:14:54;17.80;99.90
33815;DHT22;20121;51.910;8.406;2023-07-24T05:17:20;17.80;99.90
33815;DHT22;20121;51.910;8.406;2023-07-24T05:19:46;17.40;99.90
33815;DHT22;20121;51.910;8.406;2023-07-24T05:22:11;17.80;99.90
33815;DHT22;20121;51.910;8.406;2023-07-24T05:24:37;17.90;99.90
33815;DHT22;20121;51.910;8.406;2023-07-24T05:27:07;17.90;99.90
33815;DHT22;20121;51.910;8.406;2023-07-24T05:29:33;17.90;99.90
33815;DHT22;20121;51.910;8.406;2023-07-24T05:31:58;17.90;99.90
33815;DHT22;20121;51.910;8.406;2023-07-24T05:34:24;18.00;99.90
33815;DHT22;20121;51.910;8.406;2023-07-24T05:36:50;18.00;99.90
33815;DHT22;20121;51.910;8.406;2023-07-24T05:39:16;18.00;99.90
33815;DHT22;20121;51.910;8.406;2023-07-24T05:41:41;18.10;99.90
33815;DHT22;20121;51.910;8.406;2023-07-24T05:44:07;18.10;99.90
33815;DHT22;20121;51.910;8.406;2023-07-24T05:46:33;18.20;99.90
33815;DHT22;20121;51.910;8.406;2023-07-24T05:48:58;18.20;99.90
33815;DHT22;20121;51.910;8.406;2023-07-24T05:51:26;18.20;99.90
33815;DHT22;20121;51.910;8.406;2023-07-24T05:53:51;18.30;99.90
33815;DHT22;20121;51.910;8.406;2023-07-24T05:56:17;18.30;99.90
33815;DHT22;20121;51.910;8.406;2023-07-24T05:58:42;18.30;99.90
33815;DHT22;20121;51.910;8.406;2023-07-24T06:01:08;18.30;99.90
33815;DHT22;20121;51.910;8.406;2023-07-24T06:03:36;18.50;99.90
33815;DHT22;20121;51.910;8.406;2023-07-24T06:06:02;18.30;99.90
33815;DHT22;20121;51.910;8.406;2023-07-24T06:08:27;18.30;99.90
33815;DHT22;20121;51.910;8.406;2023-07-24T06:10:53;18.20;99.90
33815;DHT22;20121;51.910;8.406;2023-07-24T06:13:19;18.20;99.90
33815;DHT22;20121;51.910;8.406;2023-07-24T06:15:47;18.20;99.90
33815;DHT22;20121;51.910;8.406;2023-07-24T06:20:40;18.00;99.90
33815;DHT22;20121;51.910;8.406;2023-07-24T06:23:05;18.10;99.90
33815;DHT22;20121;51.910;8.406;2023-07-24T06:25:31;18.10;99.90
33815;DHT22;20121;51.910;8.406;2023-07-24T06:27:57;18.10;99.90
33815;DHT22;20121;51.910;8.406;2023-07-24T06:30:23;18.10;99.90
33815;DHT22;20121;51.910;8.406;2023-07-24T06:32:49;18.10;99.90
33815;DHT22;20121;51.910;8.406;2023-07-24T06:35:15;18.20;99.90
33815;DHT22;20121;51.910;8.406;2023-07-24T06:37:40;18.20;99.90
33815;DHT22;20121;51.910;8.406;2023-07-24T06:40:07;18.30;99.90
33815;DHT22;20121;51.910;8.406;2023-07-24T06:42:33;17.80;99.90
33815;DHT22;20121;51.910;8.406;2023-07-24T06:44:59;18.20;99.90
33815;DHT22;20121;51.910;8.406;2023-07-24T06:47:25;18.20;99.90
33815;DHT22;20121;51.910;8.406;2023-07-24T06:49:50;18.60;99.90
33815;DHT22;20121;51.910;8.406;2023-07-24T06:52:16;18.30;99.90
33815;DHT22;20121;51.910;8.406;2023-07-24T06:54:42;18.30;99.90
33815;DHT22;20121;51.910;8.406;2023-07-24T06:57:07;18.30;99.90
33815;DHT22;20121;51.910;8.406;2023-07-24T06:59:33;18.40;99.90
33815;DHT22;20121;51.910;8.406;2023-07-24T07:01:59;18.50;99.90
33815;DHT22;20121;51.910;8.406;2023-07-24T07:04:24;18.50;99.90
33815;DHT22;20121;51.910;8.406;2023-07-24T07:06:50;18.50;99.90
33815;DHT22;20121;51.910;8.406;2023-07-24T07:09:15;18.50;99.90
33815;DHT22;20121;51.910;8.406;2023-07-24T07:11:41;18.60;99.90
33815;DHT22;20121;51.910;8.406;2023-07-24T07:14:08;18.60;99.90
33815;DHT22;20121;51.910;8.406;2023-07-24T07:16:34;18.60;99.90
33815;DHT22;20121;51.910;8.406;2023-07-24T07:19:00;18.60;99.90
33815;DHT22;20121;51.910;8.406;2023-07-24T07:21:26;18.60;99.90
33815;DHT22;20121;51.910;8.406;2023-07-24T07:23:51;18.30;99.90
33815;DHT22;20121;51.910;8.406;2023-07-24T07:26:17;18.60;99.90
33815;DHT22;20121;51.910;8.406;2023-07-24T07:28:43;18.60;99.90
33815;DHT22;20121;51.910;8.406;2023-07-24T07:31:10;18.60;99.90
33815;DHT22;20121;51.910;8.406;2023-07-24T07:33:36;18.50;99.90
33815;DHT22;20121;51.910;8.406;2023-07-24T07:36:01;18.60;99.90
33815;DHT22;20121;51.910;8.406;2023-07-24T07:38:29;18.60;99.90
33815;DHT22;20121;51.910;8.406;2023-07-24T07:40:54;18.60;99.90
33815;DHT22;20121;51.910;8.406;2023-07-24T07:43:20;18.60;99.90
33815;DHT22;20121;51.910;8.406;2023-07-24T07:45:46;18.60;99.90
33815;DHT22;20121;51.910;8.406;2023-07-24T07:48:12;18.60;99.90
33815;DHT22;20121;51.910;8.406;2023-07-24T07:50:38;18.60;99.90
33815;DHT22;20121;51.910;8.406;2023-07-24T07:53:03;18.70;99.90
33815;DHT22;20121;51.910;8.406;2023-07-24T07:55:29;18.70;99.90
33815;DHT22;20121;51.910;8.406;2023-07-24T07:57:54;18.70;99.90
33815;DHT22;20121;51.910;8.406;2023-07-24T08:00:20;19.00;99.90
33815;DHT22;20121;51.910;8.406;2023-07-24T08:02:46;19.00;99.90
33815;DHT22;20121;51.910;8.406;2023-07-24T08:05:11;19.10;99.90
33815;DHT22;20121;51.910;8.406;2023-07-24T08:07:37;19.10;99.90
33815;DHT22;20121;51.910;8.406;2023-07-24T08:10:03;19.30;99.90
33815;DHT22;20121;51.910;8.406;2023-07-24T08:12:29;19.00;99.90
33815;DHT22;20121;51.910;8.406;2023-07-24T08:14:58;19.30;99.90
33815;DHT22;20121;51.910;8.406;2023-07-24T08:17:24;19.40;99.90
33815;DHT22;20121;51.910;8.406;2023-07-24T08:19:49;19.30;99.90
33815;DHT22;20121;51.910;8.406;2023-07-24T08:22:15;19.50;99.90
33815;DHT22;20121;51.910;8.406;2023-07-24T08:24:40;19.40;99.90
33815;DHT22;20121;51.910;8.406;2023-07-24T08:27:06;19.40;99.90
33815;DHT22;20121;51.910;8.406;2023-07-24T08:29:32;19.40;99.90
33815;DHT22;20121;51.910;8.406;2023-07-24T08:31:58;19.40;99.90
33815;DHT22;20121;51.910;8.406;2023-07-24T08:34:24;19.40;99.90
33815;DHT22;20121;51.910;8.406;2023-07-24T08:36:50;19.40;99.90
33815;DHT22;20121;51.910;8.406;2023-07-24T08:39:15;19.40;99.90
33815;DHT22;20121;51.910;8.406;2023-07-24T08:41:41;19.50;99.90
33815;DHT22;20121;51.910;8.406;2023-07-24T08:44:09;19.60;99.90
33815;DHT22;20121;51.910;8.406;2023-07-24T08:46:39;19.60;99.90
33815;DHT22;20121;51.910;8.406;2023-07-24T08:49:11;19.60;99.90
33815;DHT22;20121;51.910;8.406;2023-07-24T08:51:39;19.60;99.90
33815;DHT22;20121;51.910;8.406;2023-07-24T08:54:05;19.60;99.90
33815;DHT22;20121;51.910;8.406;2023-07-24T08:56:31;19.60;99.90
33815;DHT22;20121;51.910;8.406;2023-07-24T08:58:57;19.60;99.90
33815;DHT22;20121;51.910;8.406;2023-07-24T09:01:22;19.60;99.90
33815;DHT22;20121;51.910;8.406;2023-07-24T09:03:48;19.60;99.90
33815;DHT22;20121;51.910;8.406;2023-07-24T09:06:13;19.70;99.90
33815;DHT22;20121;51.910;8.406;2023-07-24T09:08:41;19.70;99.90
33815;DHT22;20121;51.910;8.406;2023-07-24T09:11:09;19.80;99.90
33815;DHT22;20121;51.910;8.406;2023-07-24T09:13:36;19.80;99.90
33815;DHT22;20121;51.910;8.406;2023-07-24T09:16:02;19.90;99.90
33815;DHT22;20121;51.910;8.406;2023-07-24T09:18:44;19.90;99.90
33815;DHT22;20121;51.910;8.406;2023-07-24T09:21:10;20.00;99.90
33815;DHT22;20121;51.910;8.406;2023-07-24T09:23:39;20.00;99.90
33815;DHT22;20121;51.910;8.406;2023-07-24T09:26:09;20.20;99.90
33815;DHT22;20121;51.910;8.406;2023-07-24T09:28:35;20.70;99.90
33815;DHT22;20121;51.910;8.406;2023-07-24T09:31:01;20.60;99.90
33815;DHT22;20121;51.910;8.406;2023-07-24T09:33:38;20.60;99.90
33815;DHT22;20121;51.910;8.406;2023-07-24T09:36:06;20.80;99.90
33815;DHT22;20121;51.910;8.406;2023-07-24T09:38:38;20.90;99.90
33815;DHT22;20121;51.910;8.406;2023-07-24T09:41:05;21.00;99.90
33815;DHT22;20121;51.910;8.406;2023-07-24T09:43:31;21.00;99.90
33815;DHT22;20121;51.910;8.406;2023-07-24T09:45:57;21.20;99.90
33815;DHT22;20121;51.910;8.406;2023-07-24T09:48:25;21.30;99.90
33815;DHT22;20121;51.910;8.406;2023-07-24T09:50:59;21.80;99.90
33815;DHT22;20121;51.910;8.406;2023-07-24T09:53:39;21.80;99.90
33815;DHT22;20121;51.910;8.406;2023-07-24T09:56:08;21.90;99.90
33815;DHT22;20121;51.910;8.406;2023-07-24T09:58:35;21.90;99.90
33815;DHT22;20121;51.910;8.406;2023-07-24T10:01:06;21.80;99.90
33815;DHT22;20121;51.910;8.406;2023-07-24T10:03:39;21.70;99.90
33815;DHT22;20121;51.910;8.406;2023-07-24T10:06:06;21.60;99.90
33815;DHT22;20121;51.910;8.406;2023-07-24T10:08:36;21.50;99.90
33815;DHT22;20121;51.910;8.406;2023-07-24T10:11:02;21.30;99.90
33815;DHT22;20121;51.910;8.406;2023-07-24T10:13:28;21.20;99.90
33815;DHT22;20121;51.910;8.406;2023-07-24T10:15:54;21.20;99.90
33815;DHT22;20121;51.910;8.406;2023-07-24T10:18:27;21.10;99.90
33815;DHT22;20121;51.910;8.406;2023-07-24T10:21:25;21.10;99.90
33815;DHT22;20121;51.910;8.406;2023-07-24T10:23:51;21.10;99.90
33815;DHT22;20121;51.910;8.406;2023-07-24T10:26:24;21.20;99.90
33815;DHT22;20121;51.910;8.406;2023-07-24T10:28:50;21.20;99.90
33815;DHT22;20121;51.910;8.406;2023-07-24T10:31:24;21.20;99.90
33815;DHT22;20121;51.910;8.406;2023-07-24T10:33:52;21.20;99.90
33815;DHT22;20121;51.910;8.406;2023-07-24T10:36:21;21.20;99.90
33815;DHT22;20121;51.910;8.406;2023-07-24T10:38:53;21.20;99.90
33815;DHT22;20121;51.910;8.406;2023-07-24T10:41:19;21.00;99.90
33815;DHT22;20121;51.910;8.406;2023-07-24T10:43:49;20.90;99.90
33815;DHT22;20121;51.910;8.406;2023-07-24T10:46:16;20.80;99.90
33815;DHT22;20121;51.910;8.406;2023-07-24T10:48:47;20.70;99.90
33815;DHT22;20121;51.910;8.406;2023-07-24T10:51:13;20.70;99.90
33815;DHT22;20121;51.910;8.406;2023-07-24T10:53:46;20.70;99.90
33815;DHT22;20121;51.910;8.406;2023-07-24T10:56:13;20.90;99.90
33815;DHT22;20121;51.910;8.406;2023-07-24T10:58:39;21.00;99.90
33815;DHT22;20121;51.910;8.406;2023-07-24T11:01:05;21.30;99.90
33815;DHT22;20121;51.910;8.406;2023-07-24T11:03:31;21.40;99.90
33815;DHT22;20121;51.910;8.406;2023-07-24T11:05:58;21.40;99.90
33815;DHT22;20121;51.910;8.406;2023-07-24T11:08:24;21.70;99.90
33815;DHT22;20121;51.910;8.406;2023-07-24T11:10:55;21.60;99.90
33815;DHT22;20121;51.910;8.406;2023-07-24T11:13:22;21.60;99.90
33815;DHT22;20121;51.910;8.406;2023-07-24T11:15:49;21.60;99.90
33815;DHT22;20121;51.910;8.406;2023-07-24T11:18:15;21.70;99.90
33815;DHT22;20121;51.910;8.406;2023-07-24T11:20:52;21.70;99.90
33815;DHT22;20121;51.910;8.406;2023-07-24T11:23:19;21.70;99.90
33815;DHT22;20121;51.910;8.406;2023-07-24T11:25:45;21.80;99.90
33815;DHT22;20121;51.910;8.406;2023-07-24T11:28:12;21.90;99.90
33815;DHT22;20121;51.910;8.406;2023-07-24T11:30:39;22.00;99.90
33815;DHT22;20121;51.910;8.406;2023-07-24T11:33:06;22.00;99.90
33815;DHT22;20121;51.910;8.406;2023-07-24T11:35:33;22.20;99.90
33815;DHT22;20121;51.910;8.406;2023-07-24T11:37:59;22.30;99.90
33815;DHT22;20121;51.910;8.406;2023-07-24T11:40:53;21.90;99.90
33815;DHT22;20121;51.910;8.406;2023-07-24T11:43:21;22.30;99.90
33815;DHT22;20121;51.910;8.406;2023-07-24T11:45:47;22.30;99.90
33815;DHT22;20121;51.910;8.406;2023-07-24T11:48:24;22.30;99.90
33815;DHT22;20121;51.910;8.406;2023-07-24T11:50:59;22.20;99.90
33815;DHT22;20121;51.910;8.406;2023-07-24T11:53:27;22.20;99.90
33815;DHT22;20121;51.910;8.406;2023-07-24T11:55:54;22.20;99.90
33815;DHT22;20121;51.910;8.406;2023-07-24T11:58:21;22.10;99.90
33815;DHT22;20121;51.910;8.406;2023-07-24T12:00:48;22.10;99.90
33815;DHT22;20121;51.910;8.406;2023-07-24T12:03:47;22.10;99.90
33815;DHT22;20121;51.910;8.406;2023-07-24T12:06:14;22.20;99.90
33815;DHT22;20121;51.910;8.406;2023-07-24T12:08:41;22.20;99.90
33815;DHT22;20121;51.910;8.406;2023-07-24T12:11:16;22.20;99.90
33815;DHT22;20121;51.910;8.406;2023-07-24T12:13:43;22.30;99.90
33815;DHT22;20121;51.910;8.406;2023-07-24T12:16:08;22.30;99.90
33815;DHT22;20121;51.910;8.406;2023-07-24T12:18:34;22.40;99.90
33815;DHT22;20121;51.910;8.406;2023-07-24T12:21:00;22.50;99.90
33815;DHT22;20121;51.910;8.406;2023-07-24T12:23:26;22.40;99.90
33815;DHT22;20121;51.910;8.406;2023-07-24T12:25:51;22.40;99.90
33815;DHT22;20121;51.910;8.406;2023-07-24T12:28:17;22.30;99.90
33815;DHT22;20121;51.910;8.406;2023-07-24T12:30:43;22.30;99.90
33815;DHT22;20121;51.910;8.406;2023-07-24T12:33:08;22.40;99.90
33815;DHT22;20121;51.910;8.406;2023-07-24T12:35:34;22.20;99.90
33815;DHT22;20121;51.910;8.406;2023-07-24T12:38:00;22.10;99.90
33815;DHT22;20121;51.910;8.406;2023-07-24T12:40:25;22.10;99.90
33815;DHT22;20121;51.910;8.406;2023-07-24T12:42:51;21.90;99.90
33815;DHT22;20121;51.910;8.406;2023-07-24T12:45:18;21.80;99.90
33815;DHT22;20121;51.910;8.406;2023-07-24T12:47:43;21.70;99.90
33815;DHT22;20121;51.910;8.406;2023-07-24T12:50:09;21.50;99.90
33815;DHT22;20121;51.910;8.406;2023-07-24T12:52:35;21.20;99.90
33815;DHT22;20121;51.910;8.406;2023-07-24T12:55:00;21.10;99.90
33815;DHT22;20121;51.910;8.406;2023-07-24T12:57:26;20.90;99.90
33815;DHT22;20121;51.910;8.406;2023-07-24T12:59:52;20.80;99.90
33815;DHT22;20121;51.910;8.406;2023-07-24T13:02:17;20.70;99.90
33815;DHT22;20121;51.910;8.406;2023-07-24T13:04:43;20.60;99.90
33815;DHT22;20121;51.910;8.406;2023-07-24T13:07:08;20.50;99.90
33815;DHT22;20121;51.910;8.406;2023-07-24T13:09:34;20.40;99.90
33815;DHT22;20121;51.910;8.406;2023-07-24T13:12:00;20.30;99.90
33815;DHT22;20121;51.910;8.406;2023-07-24T13:14:25;20.20;99.90
33815;DHT22;20121;51.910;8.406;2023-07-24T13:16:51;20.20;99.90
33815;DHT22;20121;51.910;8.406;2023-07-24T13:19:16;20.10;99.90
33815;DHT22;20121;51.910;8.406;2023-07-24T13:21:42;20.00;99.90
33815;DHT22;20121;51.910;8.406;2023-07-24T13:24:11;19.90;99.90
33815;DHT22;20121;51.910;8.406;2023-07-24T13:26:37;19.80;99.90
33815;DHT22;20121;51.910;8.406;2023-07-24T13:29:03;19.60;99.90
33815;DHT22;20121;51.910;8.406;2023-07-24T13:31:31;19.40;99.90
33815;DHT22;20121;51.910;8.406;2023-07-24T13:33:56;19.30;99.90
33815;DHT22;20121;51.910;8.406;2023-07-24T13:36:22;19.20;99.90
33815;DHT22;20121;51.910;8.406;2023-07-24T13:38:48;19.10;99.90
33815;DHT22;20121;51.910;8.406;2023-07-24T13:41:13;18.90;99.90
33815;DHT22;20121;51.910;8.406;2023-07-24T13:43:39;18.90;99.90
33815;DHT22;20121;51.910;8.406;2023-07-24T13:46:04;18.50;99.90
33815;DHT22;20121;51.910;8.406;2023-07-24T13:48:32;18.70;99.90
33815;DHT22;20121;51.910;8.406;2023-07-24T13:50:58;18.60;99.90
33815;DHT22;20121;51.910;8.406;2023-07-24T13:53:24;18.60;99.90
33815;DHT22;20121;51.910;8.406;2023-07-24T13:55:50;18.60;99.90
33815;DHT22;20121;51.910;8.406;2023-07-24T13:58:15;18.60;99.90
33815;DHT22;20121;51.910;8.406;2023-07-24T14:00:41;18.70;99.90
33815;DHT22;20121;51.910;8.406;2023-07-24T14:03:07;18.70;99.90
33815;DHT22;20121;51.910;8.406;2023-07-24T14:05:33;18.80;99.90
33815;DHT22;20121;51.910;8.406;2023-07-24T14:08:02;18.90;99.90
33815;DHT22;20121;51.910;8.406;2023-07-24T14:10:27;19.70;99.90
33815;DHT22;20121;51.910;8.406;2023-07-24T14:12:53;19.30;99.90
33815;DHT22;20121;51.910;8.406;2023-07-24T14:15:19;19.40;99.90
33815;DHT22;20121;51.910;8.406;2023-07-24T14:17:44;19.60;99.90
33815;DHT22;20121;51.910;8.406;2023-07-24T14:22:36;19.90;99.90
33815;DHT22;20121;51.910;8.406;2023-07-24T14:25:02;20.10;99.90
33815;DHT22;20121;51.910;8.406;2023-07-24T14:27:28;20.20;99.90
33815;DHT22;20121;51.910;8.406;2023-07-24T14:29:53;20.30;99.90
33815;DHT22;20121;51.910;8.406;2023-07-24T14:32:19;20.30;99.90
33815;DHT22;20121;51.910;8.406;2023-07-24T14:34:52;20.30;99.90
33815;DHT22;20121;51.910;8.406;2023-07-24T14:37:18;20.30;99.90
33815;DHT22;20121;51.910;8.406;2023-07-24T14:39:44;20.30;99.90
33815;DHT22;20121;51.910;8.406;2023-07-24T14:42:10;20.30;99.90
33815;DHT22;20121;51.910;8.406;2023-07-24T14:44:36;20.20;99.90
33815;DHT22;20121;51.910;8.406;2023-07-24T14:47:02;20.20;99.90
33815;DHT22;20121;51.910;8.406;2023-07-24T14:49:27;20.10;99.90
33815;DHT22;20121;51.910;8.406;2023-07-24T14:51:53;20.10;99.90
33815;DHT22;20121;51.910;8.406;2023-07-24T14:54:19;20.10;99.90
33815;DHT22;20121;51.910;8.406;2023-07-24T14:56:44;20.10;99.90
33815;DHT22;20121;51.910;8.406;2023-07-24T14:59:10;20.10;99.90
33815;DHT22;20121;51.910;8.406;2023-07-24T15:01:35;20.10;99.90
33815;DHT22;20121;51.910;8.406;2023-07-24T15:04:01;20.10;99.90
33815;DHT22;20121;51.910;8.406;2023-07-24T15:06:26;20.20;99.90
33815;DHT22;20121;51.910;8.406;2023-07-24T15:08:52;20.30;99.90
33815;DHT22;20121;51.910;8.406;2023-07-24T15:11:21;20.40;99.90
33815;DHT22;20121;51.910;8.406;2023-07-24T15:13:48;20.40;99.90
33815;DHT22;20121;51.910;8.406;2023-07-24T15:16:14;20.50;99.90
33815;DHT22;20121;51.910;8.406;2023-07-24T15:18:40;20.60;99.90
33815;DHT22;20121;51.910;8.406;2023-07-24T15:21:06;20.60;99.90
33815;DHT22;20121;51.910;8.406;2023-07-24T15:23:31;20.60;99.90
33815;DHT22;20121;51.910;8.406;2023-07-24T15:25:58;20.60;99.90
33815;DHT22;20121;51.910;8.406;2023-07-24T15:28:24;20.60;99.90
33815;DHT22;20121;51.910;8.406;2023-07-24T15:30:49;20.60;99.90
33815;DHT22;20121;51.910;8.406;2023-07-24T15:33:16;20.60;99.90
33815;DHT22;20121;51.910;8.406;2023-07-24T15:35:42;20.60;99.90